sensor_id;sensor_type;location;lat;lon;timestamp;pressure;altitude;pressure_sealevel;temperature;humidity
49947;BME280;35839;48.662;13.300;2023-04-24T05:04:23;96359.22;;;13.36;100.00
49947;BME280;35839;48.662;13.300;2023-04-24T05:06:49;96364.47;;;13.36;100.00
49947;BME280;35839;48.662;13.300;2023-04-24T05:09:16;96358.00;;;13.11;100.00
49947;BME280;35839;48.662;13.300;2023-04-24T05:11:41;96364.34;;;13.23;100.00
49947;BME280;35839;48.662;13.300;2023-04-24T05:14:06;96374.06;;;13.51;100.00
49947;BME280;35839;48.662;13.300;2023-04-24T05:16:32;96368.19;;;13.48;100.00
49947;BME280;35839;48.662;13.300;2023-04-24T05:18:57;96369.56;;;13.44;100.00
49947;BME280;35839;48.662;13.300;2023-04-24T05:21:22;96373.22;;;13.43;100.00
49947;BME280;35839;48.662;13.300;2023-04-24T05:23:48;96369.03;;;13.56;100.00
49947;BME280;35839;48.662;13.300;2023-04-24T05:26:13;96373.75;;;13.67;100.00
49947;BME280;35839;48.662;13.300;2023-04-24T05:28:39;96376.59;;;13.65;100.00
49947;BME280;35839;48.662;13.300;2023-04-24T05:31:05;96380.41;;;13.63;100.00
49947;BME280;35839;48.662;13.300;2023-04-24T05:33:30;96385.84;;;13.55;100.00
49947;BME280;35839;48.662;13.300;2023-04-24T05:35:55;96381.28;;;13.14;100.00
49947;BME280;35839;48.662;13.300;2023-04-24T05:38:21;96383.03;;;13.28;100.00
49947;BME280;35839;48.662;13.300;2023-04-24T05:40:46;96387.22;;;13.51;100.00
49947;BME280;35839;48.662;13.300;2023-04-24T05:43:12;96393.56;;;13.63;100.00
49947;BME280;35839;48.662;13.300;2023-04-24T05:45:38;96388.16;;;13.71;100.00
49947;BME280;35839;48.662;13.300;2023-04-24T05:48:04;96392.53;;;13.57;100.00
49947;BME280;35839;48.662;13.300;2023-04-24T05:50:29;96393.19;;;13.31;100.00
49947;BME280;35839;48.662;13.300;2023-04-24T05:52:55;96390.78;;;12.93;100.00
49947;BME280;35839;48.662;13.300;2023-04-24T05:55:21;96390.63;;;12.95;100.00
49947;BME280;35839;48.662;13.300;2023-04-24T05:57:46;96396.38;;;13.55;100.00
49947;BME280;35839;48.662;13.300;2023-04-24T06:00:12;96402.25;;;13.57;100.00
49947;BME280;35839;48.662;13.300;2023-04-24T06:02:38;96403.22;;;13.56;100.00
49947;BME280;35839;48.662;13.300;2023-04-24T06:05:04;96402.16;;;13.43;100.00
49947;BME280;35839;48.662;13.300;2023-04-24T06:07:30;96392.69;;;12.99;100.00
49947;BME280;35839;48.662;13.300;2023-04-24T06:09:55;96399.81;;;13.55;100.00
49947;BME280;35839;48.662;13.300;2023-04-24T06:12:22;96405.88;;;13.56;100.00
49947;BME280;35839;48.662;13.300;2023-04-24T06:14:47;96403.72;;;13.73;100.00
49947;BME280;35839;48.662;13.300;2023-04-24T06:17:13;96409.13;;;13.58;100.00
49947;BME280;35839;48.662;13.300;2023-04-24T06:19:38;96406.03;;;13.82;100.00
49947;BME280;35839;48.662;13.300;2023-04-24T06:22:03;96405.25;;;13.88;100.00
49947;BME280;35839;48.662;13.300;2023-04-24T06:24:29;96408.47;;;13.84;100.00
49947;BME280;35839;48.662;13.300;2023-04-24T06:26:55;96405.34;;;13.67;100.00
49947;BME280;35839;48.662;13.300;2023-04-24T06:29:21;96415.13;;;13.52;100.00
49947;BME280;35839;48.662;13.300;2023-04-24T06:31:47;96406.63;;;13.49;100.00
49947;BME280;35839;48.662;13.300;2023-04-24T06:34:12;96407.28;;;13.58;100.00
49947;BME280;35839;48.662;13.300;2023-04-24T06:36:37;96413.66;;;13.42;100.00
49947;BME280;35839;48.662;13.300;2023-04-24T06:39:03;96412.28;;;12.97;100.00
49947;BME280;35839;48.662;13.300;2023-04-24T06:41:28;96413.63;;;13.36;100.00
49947;BME280;35839;48.662;13.300;2023-04-24T06:43:54;96411.66;;;13.79;100.00
49947;BME280;35839;48.662;13.300;2023-04-24T06:46:19;96417.16;;;13.84;100.00
49947;BME280;35839;48.662;13.300;2023-04-24T06:48:47;96414.50;;;13.78;100.00
49947;BME280;35839;48.662;13.300;2023-04-24T06:51:12;96417.97;;;13.50;100.00
49947;BME280;35839;48.662;13.300;2023-04-24T06:53:37;96419.00;;;13.56;100.00
49947;BME280;35839;48.662;13.300;2023-04-24T06:56:03;96428.91;;;13.54;100.00
49947;BME280;35839;48.662;13.300;2023-04-24T06:58:30;96425.53;;;13.60;100.00
49947;BME280;35839;48.662;13.300;2023-04-24T07:00:55;96424.56;;;13.67;100.00
49947;BME280;35839;48.662;13.300;2023-04-24T07:03:21;96426.72;;;13.57;100.00
49947;BME280;35839;48.662;13.300;2023-04-24T07:05:46;96427.47;;;13.79;100.00
49947;BME280;35839;48.662;13.300;2023-04-24T07:08:13;96429.59;;;13.62;100.00
49947;BME280;35839;48.662;13.300;2023-04-24T07:10:38;96439.06;;;13.57;100.00
49947;BME280;35839;48.662;13.300;2023-04-24T07:13:04;96435.88;;;13.68;100.00
49947;BME280;35839;48.662;13.300;2023-04-24T07:15:29;96436.91;;;13.67;100.00
49947;BME280;35839;48.662;13.300;2023-04-24T07:17:55;96437.53;;;13.69;100.00
49947;BME280;35839;48.662;13.300;2023-04-24T07:20:21;96437.53;;;13.69;100.00
49947;BME280;35839;48.662;13.300;2023-04-24T07:22:46;96432.97;;;13.56;100.00
49947;BME280;35839;48.662;13.300;2023-04-24T07:25:13;96439.66;;;13.59;100.00
49947;BME280;35839;48.662;13.300;2023-04-24T07:27:38;96430.31;;;13.78;100.00
49947;BME280;35839;48.662;13.300;2023-04-24T07:30:04;96430.16;;;13.58;100.00
49947;BME280;35839;48.662;13.300;2023-04-24T07:32:30;96431.78;;;13.59;100.00
49947;BME280;35839;48.662;13.300;2023-04-24T07:34:55;96431.00;;;13.65;100.00
49947;BME280;35839;48.662;13.300;2023-04-24T07:37:20;96431.41;;;13.97;100.00
49947;BME280;35839;48.662;13.300;2023-04-24T07:39:46;96431.34;;;14.25;100.00
49947;BME280;35839;48.662;13.300;2023-04-24T07:42:11;96432.25;;;14.04;100.00
49947;BME280;35839;48.662;13.300;2023-04-24T07:44:36;96429.47;;;13.77;100.00
49947;BME280;35839;48.662;13.300;2023-04-24T07:47:02;96438.19;;;14.12;100.00
49947;BME280;35839;48.662;13.300;2023-04-24T07:49:27;96442.69;;;14.25;100.00
49947;BME280;35839;48.662;13.300;2023-04-24T07:51:53;96437.31;;;14.05;100.00
49947;BME280;35839;48.662;13.300;2023-04-24T07:54:18;96441.78;;;14.05;100.00
49947;BME280;35839;48.662;13.300;2023-04-24T07:56:43;96439.03;;;14.26;100.00
49947;BME280;35839;48.662;13.300;2023-04-24T07:59:10;96431.91;;;14.13;100.00
49947;BME280;35839;48.662;13.300;2023-04-24T08:01:35;96444.44;;;14.11;100.00
49947;BME280;35839;48.662;13.300;2023-04-24T08:04:01;96443.88;;;13.81;100.00
49947;BME280;35839;48.662;13.300;2023-04-24T08:06:27;96450.78;;;13.89;100.00
49947;BME280;35839;48.662;13.300;2023-04-24T08:08:59;96446.66;;;14.15;100.00
49947;BME280;35839;48.662;13.300;2023-04-24T08:11:25;96450.03;;;14.37;100.00
49947;BME280;35839;48.662;13.300;2023-04-24T08:13:51;96441.22;;;14.16;100.00
49947;BME280;35839;48.662;13.300;2023-04-24T08:16:16;96449.63;;;14.40;100.00
49947;BME280;35839;48.662;13.300;2023-04-24T08:18:42;96453.84;;;14.27;100.00
49947;BME280;35839;48.662;13.300;2023-04-24T08:21:07;96449.03;;;14.44;100.00
49947;BME280;35839;48.662;13.300;2023-04-24T08:23:32;96456.53;;;14.47;100.00
49947;BME280;35839;48.662;13.300;2023-04-24T08:25:58;96453.41;;;13.82;100.00
49947;BME280;35839;48.662;13.300;2023-04-24T08:28:23;96453.75;;;13.79;100.00
49947;BME280;35839;48.662;13.300;2023-04-24T08:30:48;96454.25;;;14.31;100.00
49947;BME280;35839;48.662;13.300;2023-04-24T08:33:19;96459.50;;;13.89;100.00
49947;BME280;35839;48.662;13.300;2023-04-24T08:35:44;96453.00;;;13.85;100.00
49947;BME280;35839;48.662;13.300;2023-04-24T08:38:10;96460.03;;;14.13;100.00
49947;BME280;35839;48.662;13.300;2023-04-24T08:40:36;96460.34;;;14.38;100.00
49947;BME280;35839;48.662;13.300;2023-04-24T08:43:03;96461.56;;;13.94;100.00
49947;BME280;35839;48.662;13.300;2023-04-24T08:45:29;96460.75;;;14.35;100.00
49947;BME280;35839;48.662;13.300;2023-04-24T08:47:54;96457.53;;;14.40;100.00
49947;BME280;35839;48.662;13.300;2023-04-24T08:50:21;96460.19;;;13.70;100.00
49947;BME280;35839;48.662;13.300;2023-04-24T08:52:48;96463.31;;;14.15;100.00
49947;BME280;35839;48.662;13.300;2023-04-24T08:55:14;96462.84;;;14.53;100.00
49947;BME280;35839;48.662;13.300;2023-04-24T08:57:42;96465.81;;;14.78;100.00
49947;BME280;35839;48.662;13.300;2023-04-24T09:00:10;96468.19;;;14.25;100.00
49947;BME280;35839;48.662;13.300;2023-04-24T09:02:35;96474.56;;;14.92;100.00
49947;BME280;35839;48.662;13.300;2023-04-24T09:05:01;96468.56;;;14.22;100.00
49947;BME280;35839;48.662;13.300;2023-04-24T09:07:30;96474.16;;;14.05;100.00
49947;BME280;35839;48.662;13.300;2023-04-24T09:09:58;96468.69;;;14.42;100.00
49947;BME280;35839;48.662;13.300;2023-04-24T09:12:24;96466.84;;;14.42;100.00
49947;BME280;35839;48.662;13.300;2023-04-24T09:14:50;96477.06;;;14.17;100.00
49947;BME280;35839;48.662;13.300;2023-04-24T09:17:16;96467.66;;;14.36;100.00
49947;BME280;35839;48.662;13.300;2023-04-24T09:19:41;96470.88;;;14.38;100.00
49947;BME280;35839;48.662;13.300;2023-04-24T09:22:07;96470.22;;;14.64;100.00
49947;BME280;35839;48.662;13.300;2023-04-24T09:24:33;96470.47;;;14.89;100.00
49947;BME280;35839;48.662;13.300;2023-04-24T09:27:00;96461.59;;;15.10;100.00
49947;BME280;35839;48.662;13.300;2023-04-24T09:29:29;96461.97;;;14.81;100.00
49947;BME280;35839;48.662;13.300;2023-04-24T09:31:55;96459.97;;;15.09;100.00
49947;BME280;35839;48.662;13.300;2023-04-24T09:34:22;96470.53;;;15.23;100.00
49947;BME280;35839;48.662;13.300;2023-04-24T09:36:48;96468.13;;;15.41;100.00
49947;BME280;35839;48.662;13.300;2023-04-24T09:39:15;96469.50;;;15.10;100.00
49947;BME280;35839;48.662;13.300;2023-04-24T09:46:38;96452.28;;;15.54;100.00
49947;BME280;35839;48.662;13.300;2023-04-24T09:49:11;96457.16;;;15.71;100.00
49947;BME280;35839;48.662;13.300;2023-04-24T09:51:37;96455.44;;;16.16;100.00
49947;BME280;35839;48.662;13.300;2023-04-24T09:54:04;96444.22;;;16.34;100.00
49947;BME280;35839;48.662;13.300;2023-04-24T09:56:35;96442.16;;;15.71;100.00
49947;BME280;35839;48.662;13.300;2023-04-24T09:59:07;96442.69;;;16.00;100.00
49947;BME280;35839;48.662;13.300;2023-04-24T10:01:33;96444.53;;;15.99;100.00
49947;BME280;35839;48.662;13.300;2023-04-24T10:03:59;96442.94;;;15.52;100.00
49947;BME280;35839;48.662;13.300;2023-04-24T10:06:33;96453.47;;;15.98;100.00
49947;BME280;35839;48.662;13.300;2023-04-24T10:08:59;96445.38;;;15.13;100.00
49947;BME280;35839;48.662;13.300;2023-04-24T10:11:26;96447.41;;;15.51;100.00
49947;BME280;35839;48.662;13.300;2023-04-24T10:13:53;96474.81;;;15.37;100.00
49947;BME280;35839;48.662;13.300;2023-04-24T10:16:20;96474.97;;;13.71;100.00
49947;BME280;35839;48.662;13.300;2023-04-24T10:18:48;96473.63;;;13.82;100.00
49947;BME280;35839;48.662;13.300;2023-04-24T10:21:14;96471.50;;;13.70;100.00
49947;BME280;35839;48.662;13.300;2023-04-24T10:23:41;96469.47;;;14.01;100.00
49947;BME280;35839;48.662;13.300;2023-04-24T10:26:12;96465.53;;;13.83;100.00
49947;BME280;35839;48.662;13.300;2023-04-24T10:28:46;96460.97;;;14.40;100.00
49947;BME280;35839;48.662;13.300;2023-04-24T10:31:13;96465.75;;;14.23;100.00
49947;BME280;35839;48.662;13.300;2023-04-24T10:33:43;96474.28;;;13.90;100.00
49947;BME280;35839;48.662;13.300;2023-04-24T10:36:12;96459.53;;;13.96;100.00
49947;BME280;35839;48.662;13.300;2023-04-24T10:38:40;96458.75;;;14.44;100.00
49947;BME280;35839;48.662;13.300;2023-04-24T10:41:08;96466.66;;;14.44;100.00
49947;BME280;35839;48.662;13.300;2023-04-24T10:43:34;96459.31;;;14.32;100.00
49947;BME280;35839;48.662;13.300;2023-04-24T10:46:05;96477.69;;;14.61;100.00
49947;BME280;35839;48.662;13.300;2023-04-24T10:48:31;96465.38;;;14.33;100.00
49947;BME280;35839;48.662;13.300;2023-04-24T10:50:57;96486.00;;;13.17;100.00
49947;BME280;35839;48.662;13.300;2023-04-24T10:53:26;96498.41;;;13.01;100.00
49947;BME280;35839;48.662;13.300;2023-04-24T10:55:59;96508.91;;;12.80;100.00
49947;BME280;35839;48.662;13.300;2023-04-24T10:58:44;96502.03;;;13.00;100.00
49947;BME280;35839;48.662;13.300;2023-04-24T11:01:29;96497.00;;;12.84;100.00
49947;BME280;35839;48.662;13.300;2023-04-24T11:03:56;96502.16;;;12.92;100.00
49947;BME280;35839;48.662;13.300;2023-04-24T11:06:36;96498.19;;;12.81;100.00
49947;BME280;35839;48.662;13.300;2023-04-24T11:09:10;96500.66;;;13.04;100.00
49947;BME280;35839;48.662;13.300;2023-04-24T11:11:44;96506.22;;;12.73;100.00
49947;BME280;35839;48.662;13.300;2023-04-24T11:14:10;96499.91;;;12.89;100.00
49947;BME280;35839;48.662;13.300;2023-04-24T11:16:53;96504.19;;;13.55;100.00
49947;BME280;35839;48.662;13.300;2023-04-24T11:19:25;96503.63;;;13.59;100.00
49947;BME280;35839;48.662;13.300;2023-04-24T11:22:04;96503.78;;;14.14;100.00
49947;BME280;35839;48.662;13.300;2023-04-24T11:30:00;96500.88;;;14.79;100.00
49947;BME280;35839;48.662;13.300;2023-04-24T11:35:01;96507.91;;;14.65;100.00
49947;BME280;35839;48.662;13.300;2023-04-24T11:39:58;96519.56;;;14.97;100.00
49947;BME280;35839;48.662;13.300;2023-04-24T11:42:24;96517.47;;;14.72;100.00
49947;BME280;35839;48.662;13.300;2023-04-24T11:44:52;96510.31;;;15.28;100.00
49947;BME280;35839;48.662;13.300;2023-04-24T11:47:17;96512.97;;;15.48;100.00
49947;BME280;35839;48.662;13.300;2023-04-24T11:49:43;96518.84;;;15.56;100.00
49947;BME280;35839;48.662;13.300;2023-04-24T11:52:08;96521.13;;;14.71;100.00
49947;BME280;35839;48.662;13.300;2023-04-24T11:54:35;96525.81;;;14.83;100.00
49947;BME280;35839;48.662;13.300;2023-04-24T11:57:04;96520.34;;;14.91;100.00
49947;BME280;35839;48.662;13.300;2023-04-24T11:59:35;96520.94;;;14.80;100.00
49947;BME280;35839;48.662;13.300;2023-04-24T12:02:00;96518.00;;;15.36;100.00
49947;BME280;35839;48.662;13.300;2023-04-24T12:04:25;96508.31;;;15.43;100.00
49947;BME280;35839;48.662;13.300;2023-04-24T12:07:04;96514.00;;;15.60;100.00
49947;BME280;35839;48.662;13.300;2023-04-24T12:09:43;96509.91;;;15.37;100.00
49947;BME280;35839;48.662;13.300;2023-04-24T12:12:08;96506.06;;;15.53;100.00
49947;BME280;35839;48.662;13.300;2023-04-24T12:14:53;96500.78;;;16.07;100.00
49947;BME280;35839;48.662;13.300;2023-04-24T12:17:27;96502.56;;;16.26;100.00
49947;BME280;35839;48.662;13.300;2023-04-24T12:19:57;96502.94;;;16.36;98.77
49947;BME280;35839;48.662;13.300;2023-04-24T12:22:23;96494.44;;;16.21;98.91
49947;BME280;35839;48.662;13.300;2023-04-24T12:25:18;96489.22;;;15.68;100.00
49947;BME280;35839;48.662;13.300;2023-04-24T12:27:44;96496.72;;;15.97;96.27
49947;BME280;35839;48.662;13.300;2023-04-24T12:30:12;96484.38;;;15.71;94.98
49947;BME280;35839;48.662;13.300;2023-04-24T12:32:46;96493.72;;;15.74;94.19
49947;BME280;35839;48.662;13.300;2023-04-24T12:35:12;96495.94;;;15.77;91.10
49947;BME280;35839;48.662;13.300;2023-04-24T12:37:37;96498.16;;;15.67;91.45
49947;BME280;35839;48.662;13.300;2023-04-24T12:40:09;96492.84;;;16.13;85.86
49947;BME280;35839;48.662;13.300;2023-04-24T12:42:37;96491.66;;;16.61;84.48
49947;BME280;35839;48.662;13.300;2023-04-24T12:45:06;96484.78;;;16.60;87.22
49947;BME280;35839;48.662;13.300;2023-04-24T12:47:33;96483.38;;;16.51;84.31
49947;BME280;35839;48.662;13.300;2023-04-24T12:49:59;96486.25;;;16.36;85.55
49947;BME280;35839;48.662;13.300;2023-04-24T12:52:26;96485.97;;;17.09;80.97
49947;BME280;35839;48.662;13.300;2023-04-24T12:54:56;96492.25;;;16.11;76.68
49947;BME280;35839;48.662;13.300;2023-04-24T12:57:26;96506.09;;;15.73;80.75
49947;BME280;35839;48.662;13.300;2023-04-24T12:59:55;96505.63;;;16.10;79.70
49947;BME280;35839;48.662;13.300;2023-04-24T13:02:22;96504.44;;;15.39;82.76
49947;BME280;35839;48.662;13.300;2023-04-24T13:04:48;96503.63;;;15.58;83.90
49947;BME280;35839;48.662;13.300;2023-04-24T13:07:14;96506.25;;;15.45;86.29
49947;BME280;35839;48.662;13.300;2023-04-24T13:09:40;96504.19;;;15.07;87.19
49947;BME280;35839;48.662;13.300;2023-04-24T13:12:06;96520.28;;;14.64;88.97
49947;BME280;35839;48.662;13.300;2023-04-24T13:14:32;96536.09;;;14.64;91.42
49947;BME280;35839;48.662;13.300;2023-04-24T13:16:57;96546.25;;;13.33;100.00
49947;BME280;35839;48.662;13.300;2023-04-24T13:19:26;96542.84;;;12.81;100.00
49947;BME280;35839;48.662;13.300;2023-04-24T13:21:52;96552.81;;;13.22;100.00
49947;BME280;35839;48.662;13.300;2023-04-24T13:24:18;96548.09;;;12.96;100.00
49947;BME280;35839;48.662;13.300;2023-04-24T13:26:43;96558.75;;;12.14;100.00
49947;BME280;35839;48.662;13.300;2023-04-24T13:29:09;96564.81;;;12.44;100.00
49947;BME280;35839;48.662;13.300;2023-04-24T13:31:34;96564.66;;;12.46;100.00
49947;BME280;35839;48.662;13.300;2023-04-24T13:34:00;96563.38;;;12.41;100.00
49947;BME280;35839;48.662;13.300;2023-04-24T13:36:25;96556.22;;;12.50;100.00
49947;BME280;35839;48.662;13.300;2023-04-24T13:38:51;96554.28;;;12.74;100.00
49947;BME280;35839;48.662;13.300;2023-04-24T13:41:16;96542.16;;;13.09;100.00
49947;BME280;35839;48.662;13.300;2023-04-24T13:43:41;96542.72;;;12.68;100.00
49947;BME280;35839;48.662;13.300;2023-04-24T13:46:08;96536.88;;;12.88;100.00
49947;BME280;35839;48.662;13.300;2023-04-24T13:48:34;96543.03;;;13.31;100.00
49947;BME280;35839;48.662;13.300;2023-04-24T13:51:00;96535.38;;;13.58;100.00
49947;BME280;35839;48.662;13.300;2023-04-24T13:53:25;96535.75;;;13.33;100.00
49947;BME280;35839;48.662;13.300;2023-04-24T13:55:50;96537.31;;;13.49;100.00
49947;BME280;35839;48.662;13.300;2023-04-24T13:58:16;96531.97;;;13.42;100.00
49947;BME280;35839;48.662;13.300;2023-04-24T14:00:41;96528.84;;;14.10;100.00
49947;BME280;35839;48.662;13.300;2023-04-24T14:03:06;96526.41;;;14.02;100.00
49947;BME280;35839;48.662;13.300;2023-04-24T14:05:32;96531.50;;;14.10;100.00
49947;BME280;35839;48.662;13.300;2023-04-24T14:07:57;96526.19;;;14.38;100.00
49947;BME280;35839;48.662;13.300;2023-04-24T14:10:23;96521.47;;;15.30;100.00
49947;BME280;35839;48.662;13.300;2023-04-24T14:12:48;96526.72;;;14.55;100.00
49947;BME280;35839;48.662;13.300;2023-04-24T14:15:13;96525.53;;;14.64;100.00
49947;BME280;35839;48.662;13.300;2023-04-24T14:17:39;96515.75;;;15.13;100.00
49947;BME280;35839;48.662;13.300;2023-04-24T14:20:05;96514.81;;;15.87;98.55
49947;BME280;35839;48.662;13.300;2023-04-24T14:22:32;96520.47;;;16.11;92.34
49947;BME280;35839;48.662;13.300;2023-04-24T14:24:57;96522.47;;;15.35;95.43
49947;BME280;35839;48.662;13.300;2023-04-24T14:27:22;96517.91;;;14.83;94.13
49947;BME280;35839;48.662;13.300;2023-04-24T14:29:48;96516.94;;;14.97;93.94
49947;BME280;35839;48.662;13.300;2023-04-24T14:32:13;96517.63;;;15.52;95.40
49947;BME280;35839;48.662;13.300;2023-04-24T14:34:40;96513.56;;;15.30;91.94
49947;BME280;35839;48.662;13.300;2023-04-24T14:37:05;96512.34;;;15.39;92.94
49947;BME280;35839;48.662;13.300;2023-04-24T14:39:30;96509.38;;;14.74;96.82
49947;BME280;35839;48.662;13.300;2023-04-24T14:41:56;96506.97;;;14.44;96.87
49947;BME280;35839;48.662;13.300;2023-04-24T14:44:21;96508.91;;;14.57;95.35
49947;BME280;35839;48.662;13.300;2023-04-24T14:46:48;96506.44;;;14.56;97.94
49947;BME280;35839;48.662;13.300;2023-04-24T14:49:13;96511.97;;;14.32;97.99
49947;BME280;35839;48.662;13.300;2023-04-24T14:51:39;96510.16;;;14.74;95.78
49947;BME280;35839;48.662;13.300;2023-04-24T14:54:05;96503.94;;;14.41;98.07
49947;BME280;35839;48.662;13.300;2023-04-24T14:56:31;96510.16;;;14.74;99.96
49947;BME280;35839;48.662;13.300;2023-04-24T14:58:56;96503.75;;;14.90;99.42
49947;BME280;35839;48.662;13.300;2023-04-24T15:01:22;96512.34;;;15.66;96.87
49947;BME280;35839;48.662;13.300;2023-04-24T15:03:47;96501.78;;;15.99;94.51
49947;BME280;35839;48.662;13.300;2023-04-24T15:06:12;96498.09;;;16.20;94.00
49947;BME280;35839;48.662;13.300;2023-04-24T15:08:38;96500.78;;;16.72;89.39
49947;BME280;35839;48.662;13.300;2023-04-24T15:11:03;96508.91;;;15.92;93.83
49947;BME280;35839;48.662;13.300;2023-04-24T15:13:29;96507.72;;;15.74;89.39
49947;BME280;35839;48.662;13.300;2023-04-24T15:15:54;96508.09;;;15.91;90.42
49947;BME280;35839;48.662;13.300;2023-04-24T15:18:20;96510.78;;;15.71;89.96
49947;BME280;35839;48.662;13.300;2023-04-24T15:20:45;96514.78;;;15.34;91.70
49947;BME280;35839;48.662;13.300;2023-04-24T15:23:11;96516.84;;;15.78;92.99
49947;BME280;35839;48.662;13.300;2023-04-24T15:25:36;96517.63;;;15.39;96.56
49947;BME280;35839;48.662;13.300;2023-04-24T15:28:02;96521.50;;;15.70;92.62
49947;BME280;35839;48.662;13.300;2023-04-24T15:30:29;96515.63;;;15.81;94.43
49947;BME280;35839;48.662;13.300;2023-04-24T15:32:54;96523.38;;;15.76;92.56
49947;BME280;35839;48.662;13.300;2023-04-24T15:35:20;96519.09;;;15.88;89.44
49947;BME280;35839;48.662;13.300;2023-04-24T15:37:45;96526.94;;;16.15;89.60
49947;BME280;35839;48.662;13.300;2023-04-24T15:40:11;96529.00;;;15.66;84.26
49947;BME280;35839;48.662;13.300;2023-04-24T15:42:38;96529.84;;;15.93;80.69
49947;BME280;35839;48.662;13.300;2023-04-24T15:45:04;96525.28;;;16.40;75.02
49947;BME280;35839;48.662;13.300;2023-04-24T15:47:29;96540.38;;;15.60;73.45
49947;BME280;35839;48.662;13.300;2023-04-24T15:49:55;96533.88;;;15.89;69.16
49947;BME280;35839;48.662;13.300;2023-04-24T15:52:20;96542.59;;;15.63;69.01
49947;BME280;35839;48.662;13.300;2023-04-24T15:54:46;96537.13;;;15.85;67.69
49947;BME280;35839;48.662;13.300;2023-04-24T15:57:11;96547.59;;;15.11;64.98
49947;BME280;35839;48.662;13.300;2023-04-24T15:59:37;96553.16;;;15.63;66.03
49947;BME280;35839;48.662;13.300;2023-04-24T16:02:03;96549.63;;;15.16;66.56
49947;BME280;35839;48.662;13.300;2023-04-24T16:04:29;96555.09;;;15.01;65.32
49947;BME280;35839;48.662;13.300;2023-04-24T16:06:54;96548.09;;;15.55;65.36
49947;BME280;35839;48.662;13.300;2023-04-24T16:09:21;96556.06;;;15.00;65.10
49947;BME280;35839;48.662;13.300;2023-04-24T16:11:46;96553.44;;;15.00;65.77
49947;BME280;35839;48.662;13.300;2023-04-24T16:14:12;96558.53;;;15.02;66.73
49947;BME280;35839;48.662;13.300;2023-04-24T16:16:37;96563.59;;;14.55;63.89
49947;BME280;35839;48.662;13.300;2023-04-24T16:19:02;96562.44;;;14.64;63.98
49947;BME280;35839;48.662;13.300;2023-04-24T16:21:28;96559.25;;;14.75;63.62
49947;BME280;35839;48.662;13.300;2023-04-24T16:23:53;96560.09;;;14.48;64.24
49947;BME280;35839;48.662;13.300;2023-04-24T16:26:19;96564.66;;;14.67;67.47
49947;BME280;35839;48.662;13.300;2023-04-24T16:28:46;96569.22;;;14.52;65.61
49947;BME280;35839;48.662;13.300;2023-04-24T16:31:11;96571.94;;;14.30;66.58
49947;BME280;35839;48.662;13.300;2023-04-24T16:33:36;96569.16;;;14.73;66.03
49947;BME280;35839;48.662;13.300;2023-04-24T16:36:02;96571.50;;;14.55;66.58
49947;BME280;35839;48.662;13.300;2023-04-24T16:38:30;96576.88;;;14.47;68.16
49947;BME280;35839;48.662;13.300;2023-04-24T16:40:55;96578.13;;;14.51;67.63
49947;BME280;35839;48.662;13.300;2023-04-24T16:43:20;96570.13;;;14.03;68.83
49947;BME280;35839;48.662;13.300;2023-04-24T16:45:45;96585.44;;;13.93;68.75
49947;BME280;35839;48.662;13.300;2023-04-24T16:48:11;96577.16;;;13.96;68.46
49947;BME280;35839;48.662;13.300;2023-04-24T16:50:36;96586.88;;;14.23;66.63
49947;BME280;35839;48.662;13.300;2023-04-24T16:53:02;96587.38;;;14.40;66.21
49947;BME280;35839;48.662;13.300;2023-04-24T16:55:27;96587.81;;;14.44;65.68
49947;BME280;35839;48.662;13.300;2023-04-24T16:57:53;96595.56;;;14.52;64.90
49947;BME280;35839;48.662;13.300;2023-04-24T17:00:18;96600.19;;;14.15;67.42
49947;BME280;35839;48.662;13.300;2023-04-24T17:02:43;96600.31;;;14.35;67.92
49947;BME280;35839;48.662;13.300;2023-04-24T17:05:13;96594.72;;;14.17;68.20
49947;BME280;35839;48.662;13.300;2023-04-24T17:07:38;96599.59;;;13.91;69.27
49947;BME280;35839;48.662;13.300;2023-04-24T17:10:04;96602.53;;;14.03;68.72
49947;BME280;35839;48.662;13.300;2023-04-24T17:12:30;96608.63;;;14.04;69.00
49947;BME280;35839;48.662;13.300;2023-04-24T17:14:55;96603.59;;;14.09;68.78
49947;BME280;35839;48.662;13.300;2023-04-24T17:17:20;96608.66;;;13.82;67.90
49947;BME280;35839;48.662;13.300;2023-04-24T17:19:47;96614.50;;;13.84;69.24
49947;BME280;35839;48.662;13.300;2023-04-24T17:22:15;96608.63;;;13.61;67.84
49947;BME280;35839;48.662;13.300;2023-04-24T17:24:40;96617.69;;;13.73;67.68
49947;BME280;35839;48.662;13.300;2023-04-24T17:27:06;96616.72;;;13.81;65.54
49947;BME280;35839;48.662;13.300;2023-04-24T17:29:31;96616.91;;;13.58;66.85
49947;BME280;35839;48.662;13.300;2023-04-24T17:31:58;96621.59;;;13.62;66.99
49947;BME280;35839;48.662;13.300;2023-04-24T17:34:23;96630.06;;;13.79;66.03
49947;BME280;35839;48.662;13.300;2023-04-24T17:36:48;96621.28;;;13.72;67.08
49947;BME280;35839;48.662;13.300;2023-04-24T17:39:14;96636.44;;;13.48;68.56
49947;BME280;35839;48.662;13.300;2023-04-24T17:41:40;96634.13;;;13.39;67.93
49947;BME280;35839;48.662;13.300;2023-04-24T17:44:06;96643.13;;;13.30;69.65
49947;BME280;35839;48.662;13.300;2023-04-24T17:46:32;96650.84;;;13.31;69.03
49947;BME280;35839;48.662;13.300;2023-04-24T17:48:58;96646.31;;;13.61;67.84
49947;BME280;35839;48.662;13.300;2023-04-24T17:51:23;96650.06;;;13.37;68.36
49947;BME280;35839;48.662;13.300;2023-04-24T17:53:48;96650.47;;;13.56;69.15
49947;BME280;35839;48.662;13.300;2023-04-24T17:56:14;96660.59;;;13.37;71.01
49947;BME280;35839;48.662;13.300;2023-04-24T17:58:39;96661.69;;;13.64;68.58